Time;durP1;ratioP1;P1;durP2;ratioP2;P2;SDS_P1;SDS_P2;PMS_P1;PMS_P2;Temp;Humidity;BMP_temperature;BMP_pressure;BME280_temperature;BME280_humidity;BME280_pressure;Samples;Min_cycle;Max_cycle;Signal;HPM_P1;HPM_P2
2023/08/17 00:02:24;;;;;;;3.10;2.00;;;;;;;;;;5102907;28;20830;-69
2023/08/17 00:04:54;;;;;;;3.70;2.10;;;;;;;;;;5102386;28;20487;-70
2023/08/17 00:07:21;;;;;;;4.17;2.70;;;;;;;;;;5095916;28;20443;-68
2023/08/17 00:09:48;;;;;;;3.67;2.50;;;;;;;;;;5102475;28;20463;-68
2023/08/17 00:12:15;;;;;;;4.40;2.50;;;;;;;;;;5101702;28;20519;-68
2023/08/17 00:14:42;;;;;;;3.37;2.80;;;;;;;;;;5100923;28;20427;-68
2023/08/17 00:17:09;;;;;;;3.67;2.60;;;;;;;;;;5104063;28;20444;-68
2023/08/17 00:19:37;;;;;;;4.70;2.80;;;;;;;;;;5102184;28;20455;-68
2023/08/17 00:22:05;;;;;;;3.47;2.10;;;;;;;;;;5103685;28;20539;-68
2023/08/17 00:24:32;;;;;;;3.77;2.00;;;;;;;;;;5107048;28;20587;-68
2023/08/17 00:26:59;;;;;;;4.23;2.33;;;;;;;;;;5107562;28;20841;-68
2023/08/17 00:29:26;;;;;;;4.03;2.77;;;;;;;;;;5106206;28;20455;-68
2023/08/17 00:31:53;;;;;;;4.60;3.10;;;;;;;;;;5107327;28;20766;-69
2023/08/17 00:34:20;;;;;;;4.00;2.57;;;;;;;;;;5104027;28;20421;-68
2023/08/17 00:36:47;;;;;;;4.70;3.37;;;;;;;;;;5110301;28;20630;-68
2023/08/17 00:39:16;;;;;;;4.30;3.37;;;;;;;;;;5107982;28;20451;-68
2023/08/17 00:41:43;;;;;;;4.37;3.20;;;;;;;;;;5111162;28;20494;-66
2023/08/17 00:44:10;;;;;;;5.93;3.70;;;;;;;;;;5104896;28;20490;-68
2023/08/17 00:46:37;;;;;;;4.20;2.97;;;;;;;;;;5108201;28;20432;-67
2023/08/17 00:49:05;;;;;;;4.33;3.30;;;;;;;;;;5104437;28;20954;-67
2023/08/17 00:51:32;;;;;;;3.67;2.33;;;;;;;;;;5108292;28;20479;-67
2023/08/17 00:54:00;;;;;;;4.60;3.27;;;;;;;;;;5103721;28;20451;-66
2023/08/17 00:56:30;;;;;;;6.07;3.50;;;;;;;;;;5103317;28;20452;-67
2023/08/17 00:58:58;;;;;;;4.10;3.20;;;;;;;;;;5107485;28;20459;-67
2023/08/17 01:01:25;;;;;;;6.33;2.97;;;;;;;;;;5108495;28;20478;-67
2023/08/17 01:03:52;;;;;;;4.07;3.30;;;;;;;;;;5102175;28;20485;-68
2023/08/17 01:06:20;;;;;;;5.43;3.23;;;;;;;;;;5102232;28;20888;-68
2023/08/17 01:08:47;;;;;;;5.40;2.83;;;;;;;;;;5107559;28;20458;-68
2023/08/17 01:11:20;;;;;;;5.87;3.80;;;;;;;;;;5104769;28;20530;-68
2023/08/17 01:13:53;;;;;;;4.80;2.93;;;;;;;;;;5103671;28;20439;-68
2023/08/17 01:16:23;;;;;;;4.60;3.00;;;;;;;;;;5108311;28;20448;-68
2023/08/17 01:18:51;;;;;;;6.57;3.80;;;;;;;;;;5109024;28;20446;-68
2023/08/17 01:21:19;;;;;;;7.37;3.53;;;;;;;;;;5106060;28;20961;-68
2023/08/17 01:23:50;;;;;;;4.97;3.60;;;;;;;;;;5104903;28;20482;-68
2023/08/17 01:26:18;;;;;;;5.50;3.70;;;;;;;;;;5103490;28;20460;-68
2023/08/17 01:28:45;;;;;;;4.87;3.07;;;;;;;;;;5105689;28;20537;-67
2023/08/17 01:31:13;;;;;;;6.10;3.70;;;;;;;;;;5111384;28;20459;-68
2023/08/17 01:33:44;;;;;;;4.27;3.13;;;;;;;;;;5100636;28;20433;-68
2023/08/17 01:36:14;;;;;;;4.00;2.60;;;;;;;;;;5101029;28;20448;-68
2023/08/17 01:38:42;;;;;;;4.30;2.87;;;;;;;;;;5105330;28;20456;-67
2023/08/17 01:41:12;;;;;;;7.40;3.10;;;;;;;;;;5106453;28;20462;-68
2023/08/17 01:43:40;;;;;;;4.70;3.10;;;;;;;;;;5107016;28;20482;-67
2023/08/17 01:46:08;;;;;;;4.37;2.80;;;;;;;;;;5108397;28;20461;-68
2023/08/17 01:48:35;;;;;;;3.47;2.87;;;;;;;;;;5105051;28;20542;-67
2023/08/17 01:51:02;;;;;;;3.90;2.77;;;;;;;;;;5104031;28;20447;-68
2023/08/17 01:53:29;;;;;;;4.50;2.97;;;;;;;;;;5107635;28;20849;-68
2023/08/17 01:55:56;;;;;;;4.20;3.20;;;;;;;;;;5104270;28;20461;-68
2023/08/17 01:58:25;;;;;;;5.10;2.53;;;;;;;;;;5107046;28;20447;-68
2023/08/17 02:00:52;;;;;;;4.30;2.73;;;;;;;;;;5100510;28;20456;-69
2023/08/17 02:03:19;;;;;;;5.50;2.87;;;;;;;;;;5102523;28;20482;-69
2023/08/17 02:05:46;;;;;;;4.73;3.50;;;;;;;;;;5101110;28;20514;-69
2023/08/17 02:08:13;;;;;;;4.43;3.20;;;;;;;;;;5105728;28;20436;-68
2023/08/17 02:10:40;;;;;;;6.10;3.03;;;;;;;;;;5101111;28;20807;-68
2023/08/17 02:13:07;;;;;;;4.13;3.00;;;;;;;;;;5102137;28;20468;-69
2023/08/17 02:15:39;;;;;;;4.07;2.27;;;;;;;;;;5104390;28;21257;-68
2023/08/17 02:18:07;;;;;;;5.00;2.80;;;;;;;;;;5105178;28;20439;-68
2023/08/17 02:20:34;;;;;;;6.77;3.30;;;;;;;;;;5103670;28;20454;-68
2023/08/17 02:23:01;;;;;;;5.10;2.93;;;;;;;;;;5103492;28;20476;-69
2023/08/17 02:25:33;;;;;;;4.93;3.30;;;;;;;;;;5105610;28;20479;-69
2023/08/17 02:28:01;;;;;;;5.70;4.10;;;;;;;;;;5102278;28;20461;-69
2023/08/17 02:30:28;;;;;;;5.23;3.73;;;;;;;;;;5108383;28;20897;-68
2023/08/17 02:32:57;;;;;;;5.83;3.60;;;;;;;;;;5109461;28;20550;-67
2023/08/17 02:35:24;;;;;;;6.27;4.00;;;;;;;;;;5109991;28;20923;-68
2023/08/17 02:37:51;;;;;;;4.50;3.20;;;;;;;;;;5102881;28;20460;-68
2023/08/17 02:40:19;;;;;;;9.00;2.97;;;;;;;;;;5108342;28;20455;-68
2023/08/17 02:42:46;;;;;;;4.53;3.47;;;;;;;;;;5112896;28;20475;-68
2023/08/17 02:45:13;;;;;;;5.17;3.83;;;;;;;;;;5104889;28;20480;-70
2023/08/17 02:47:40;;;;;;;5.03;3.30;;;;;;;;;;5104367;28;20456;-69
2023/08/17 02:50:09;;;;;;;6.70;3.23;;;;;;;;;;5109529;28;20452;-69
2023/08/17 02:52:36;;;;;;;4.83;3.20;;;;;;;;;;5103669;28;20471;-68
2023/08/17 02:55:03;;;;;;;4.80;3.40;;;;;;;;;;5103963;28;20830;-68
2023/08/17 02:57:30;;;;;;;6.00;3.33;;;;;;;;;;5098819;28;20812;-68
2023/08/17 02:59:57;;;;;;;5.20;3.37;;;;;;;;;;5103275;28;20498;-69
2023/08/17 03:02:24;;;;;;;4.90;3.90;;;;;;;;;;5105328;28;20575;-68
2023/08/17 03:04:51;;;;;;;4.70;3.50;;;;;;;;;;5103479;28;20523;-68
2023/08/17 03:07:20;;;;;;;8.17;4.70;;;;;;;;;;5101382;28;20436;-69
2023/08/17 03:09:47;;;;;;;4.80;2.93;;;;;;;;;;5101939;28;20445;-69
2023/08/17 03:12:14;;;;;;;5.43;4.37;;;;;;;;;;5104510;28;20511;-69
2023/08/17 03:14:41;;;;;;;5.27;3.77;;;;;;;;;;5106599;28;20933;-69
2023/08/17 03:17:08;;;;;;;5.87;3.60;;;;;;;;;;5101401;28;20481;-69
2023/08/17 03:19:35;;;;;;;5.37;4.00;;;;;;;;;;5102931;28;20432;-69
2023/08/17 03:22:02;;;;;;;6.70;3.43;;;;;;;;;;5101029;28;20826;-69
2023/08/17 03:24:30;;;;;;;6.80;3.30;;;;;;;;;;5101690;28;20532;-69
2023/08/17 03:26:57;;;;;;;5.73;3.80;;;;;;;;;;5099532;28;20456;-68
2023/08/17 03:29:25;;;;;;;4.83;3.33;;;;;;;;;;5102109;28;20993;-70
2023/08/17 03:31:53;;;;;;;6.90;3.93;;;;;;;;;;5103954;28;20480;-67
2023/08/17 03:34:20;;;;;;;5.93;4.00;;;;;;;;;;5104933;28;20454;-67
2023/08/17 03:36:47;;;;;;;5.70;3.53;;;;;;;;;;5108333;28;20452;-67
2023/08/17 03:39:14;;;;;;;5.63;3.90;;;;;;;;;;5105933;28;20826;-68
2023/08/17 03:41:43;;;;;;;5.30;3.63;;;;;;;;;;5105491;28;20494;-68
2023/08/17 03:44:10;;;;;;;5.13;3.60;;;;;;;;;;5101294;28;20472;-68
2023/08/17 03:46:37;;;;;;;6.20;4.07;;;;;;;;;;5105957;28;20456;-68
2023/08/17 03:49:04;;;;;;;7.50;4.20;;;;;;;;;;5103448;28;20451;-68
2023/08/17 03:51:32;;;;;;;5.63;3.77;;;;;;;;;;5103574;28;20463;-68
2023/08/17 03:53:59;;;;;;;8.37;4.27;;;;;;;;;;5100984;28;20864;-68
2023/08/17 03:56:29;;;;;;;6.57;4.00;;;;;;;;;;5101745;28;20452;-68
2023/08/17 03:58:57;;;;;;;9.90;5.57;;;;;;;;;;5106811;28;20505;-68
2023/08/17 04:01:24;;;;;;;18.50;5.73;;;;;;;;;;5103866;28;20449;-68
2023/08/17 04:03:51;;;;;;;7.13;4.70;;;;;;;;;;5104347;28;20458;-68
2023/08/17 04:06:18;;;;;;;9.27;5.10;;;;;;;;;;5103272;28;20464;-68
2023/08/17 04:08:45;;;;;;;7.40;4.63;;;;;;;;;;5106036;28;20671;-68
2023/08/17 04:11:12;;;;;;;8.00;4.90;;;;;;;;;;5101509;28;20468;-69
2023/08/17 04:13:39;;;;;;;11.50;4.40;;;;;;;;;;5104523;28;20807;-68
2023/08/17 04:16:08;;;;;;;8.33;5.07;;;;;;;;;;5103211;28;20448;-68
2023/08/17 04:18:35;;;;;;;8.13;5.80;;;;;;;;;;5102467;28;20458;-68
2023/08/17 04:21:02;;;;;;;7.50;5.13;;;;;;;;;;5103171;28;20466;-68
2023/08/17 04:23:29;;;;;;;7.93;4.53;;;;;;;;;;5101279;28;20471;-68
2023/08/17 04:25:56;;;;;;;9.10;6.00;;;;;;;;;;5097993;28;20464;-68
2023/08/17 04:28:23;;;;;;;9.67;6.53;;;;;;;;;;5103420;28;20463;-68
2023/08/17 04:30:50;;;;;;;6.83;4.73;;;;;;;;;;5099711;28;20824;-68
2023/08/17 04:33:18;;;;;;;10.70;6.20;;;;;;;;;;5105053;28;20501;-68
2023/08/17 04:35:48;;;;;;;10.97;6.40;;;;;;;;;;5105039;28;20462;-68
2023/08/17 04:38:15;;;;;;;7.40;4.87;;;;;;;;;;5103685;28;20527;-68
2023/08/17 04:40:42;;;;;;;7.90;5.50;;;;;;;;;;5105093;28;20447;-68
2023/08/17 04:43:09;;;;;;;9.90;5.77;;;;;;;;;;5099055;28;20468;-68
2023/08/17 04:45:36;;;;;;;9.87;5.90;;;;;;;;;;5097127;28;20471;-68
2023/08/17 04:48:03;;;;;;;9.07;5.73;;;;;;;;;;5102378;28;20491;-68
2023/08/17 04:50:32;;;;;;;10.00;5.90;;;;;;;;;;5101154;28;20460;-68
2023/08/17 04:52:59;;;;;;;11.77;7.13;;;;;;;;;;5107007;28;20471;-68
2023/08/17 04:55:26;;;;;;;11.43;6.87;;;;;;;;;;5100355;28;21011;-67
2023/08/17 04:57:53;;;;;;;11.23;7.03;;;;;;;;;;5104538;28;20537;-68
2023/08/17 05:00:25;;;;;;;12.07;7.57;;;;;;;;;;5100904;28;20458;-67
2023/08/17 05:02:52;;;;;;;13.67;7.37;;;;;;;;;;5109035;28;20463;-67
2023/08/17 05:05:19;;;;;;;10.53;6.67;;;;;;;;;;5101055;28;20515;-67
2023/08/17 05:07:47;;;;;;;11.40;6.83;;;;;;;;;;5103735;28;20463;-69
2023/08/17 05:10:15;;;;;;;10.03;7.47;;;;;;;;;;5106071;28;20462;-68
2023/08/17 05:12:42;;;;;;;10.60;6.63;;;;;;;;;;5107569;28;20515;-68
2023/08/17 05:15:09;;;;;;;12.00;7.43;;;;;;;;;;5106450;28;20444;-69
2023/08/17 05:17:36;;;;;;;12.77;6.50;;;;;;;;;;5104368;28;20475;-69
2023/08/17 05:20:04;;;;;;;17.77;8.00;;;;;;;;;;5106013;28;20463;-67
2023/08/17 05:22:32;;;;;;;7.37;5.20;;;;;;;;;;5105340;28;20451;-69
2023/08/17 05:25:00;;;;;;;7.80;6.07;;;;;;;;;;5104717;28;20467;-69
2023/08/17 05:27:27;;;;;;;8.23;5.70;;;;;;;;;;5104680;28;20729;-69
2023/08/17 05:29:54;;;;;;;9.50;6.10;;;;;;;;;;5108485;28;20451;-69
2023/08/17 05:32:21;;;;;;;9.70;5.97;;;;;;;;;;5104009;28;20472;-70
2023/08/17 05:34:48;;;;;;;9.10;5.70;;;;;;;;;;5108833;28;20427;-67
2023/08/17 05:37:16;;;;;;;10.37;7.00;;;;;;;;;;5110255;28;20455;-68
2023/08/17 05:39:43;;;;;;;9.60;5.73;;;;;;;;;;5105346;28;20452;-67
2023/08/17 05:42:12;;;;;;;10.20;6.60;;;;;;;;;;5114122;28;20448;-67
2023/08/17 05:44:39;;;;;;;10.37;6.70;;;;;;;;;;5102225;28;20961;-68
2023/08/17 05:47:06;;;;;;;8.20;5.07;;;;;;;;;;5107942;28;20459;-68
2023/08/17 05:49:33;;;;;;;8.47;5.70;;;;;;;;;;5108174;28;20460;-68
2023/08/17 05:52:00;;;;;;;11.27;7.17;;;;;;;;;;5105240;28;20473;-69
2023/08/17 05:54:27;;;;;;;10.27;6.07;;;;;;;;;;5107946;28;20455;-67
2023/08/17 05:56:54;;;;;;;10.30;6.30;;;;;;;;;;5104375;28;20497;-66
2023/08/17 05:59:22;;;;;;;8.50;6.00;;;;;;;;;;5106456;28;20448;-67
2023/08/17 06:01:49;;;;;;;11.60;6.60;;;;;;;;;;5105262;28;20476;-69
2023/08/17 06:04:16;;;;;;;10.07;6.63;;;;;;;;;;5103369;28;20436;-68
2023/08/17 06:06:43;;;;;;;10.10;5.40;;;;;;;;;;5102425;28;21032;-67
2023/08/17 06:09:10;;;;;;;11.60;6.33;;;;;;;;;;5107278;28;20460;-69
2023/08/17 06:11:38;;;;;;;8.50;5.90;;;;;;;;;;5105401;28;20540;-68
2023/08/17 06:14:06;;;;;;;9.60;6.07;;;;;;;;;;5100517;28;20507;-69
2023/08/17 06:16:35;;;;;;;10.20;5.40;;;;;;;;;;5103446;28;20495;-68
2023/08/17 06:19:02;;;;;;;7.57;4.90;;;;;;;;;;5102361;28;20440;-67
2023/08/17 06:21:29;;;;;;;9.57;6.43;;;;;;;;;;5105125;28;20521;-67
2023/08/17 06:23:56;;;;;;;8.20;5.33;;;;;;;;;;5102596;28;20449;-69
2023/08/17 06:26:23;;;;;;;8.83;5.90;;;;;;;;;;5106534;28;21009;-69
2023/08/17 06:28:50;;;;;;;8.40;5.67;;;;;;;;;;5104413;28;20447;-68
2023/08/17 06:31:17;;;;;;;9.53;6.47;;;;;;;;;;5106598;28;21005;-68
2023/08/17 06:33:45;;;;;;;7.50;6.50;;;;;;;;;;5106573;28;20431;-69
2023/08/17 06:36:16;;;;;;;10.17;5.23;;;;;;;;;;5109756;28;20467;-68
2023/08/17 06:38:43;;;;;;;10.70;5.93;;;;;;;;;;5099011;28;20479;-69
2023/08/17 06:41:10;;;;;;;10.93;7.20;;;;;;;;;;5104495;28;20833;-68
2023/08/17 06:43:37;;;;;;;10.37;5.57;;;;;;;;;;5102039;28;20436;-68
2023/08/17 06:46:04;;;;;;;8.40;6.40;;;;;;;;;;5103220;28;20471;-69
2023/08/17 06:48:32;;;;;;;13.77;6.30;;;;;;;;;;5106691;28;20470;-69
2023/08/17 06:51:02;;;;;;;9.30;6.63;;;;;;;;;;5102378;28;20919;-68
2023/08/17 06:53:29;;;;;;;8.77;5.43;;;;;;;;;;5099867;28;21027;-68
2023/08/17 06:55:56;;;;;;;9.70;6.43;;;;;;;;;;5102520;28;20448;-69
2023/08/17 06:58:23;;;;;;;10.77;6.23;;;;;;;;;;5087361;28;20998;-68
2023/08/17 07:00:50;;;;;;;8.90;6.17;;;;;;;;;;5102703;28;20912;-68
2023/08/17 07:03:17;;;;;;;8.43;5.23;;;;;;;;;;5100193;28;20459;-67
2023/08/17 07:05:44;;;;;;;9.67;5.70;;;;;;;;;;5102310;28;20471;-68
2023/08/17 07:08:13;;;;;;;7.93;5.40;;;;;;;;;;5102784;28;20482;-66
2023/08/17 07:10:40;;;;;;;11.67;5.07;;;;;;;;;;5102260;28;20472;-67
2023/08/17 07:13:07;;;;;;;9.10;6.30;;;;;;;;;;5105685;28;20464;-69
2023/08/17 07:15:34;;;;;;;9.37;5.63;;;;;;;;;;5099693;28;20449;-68
2023/08/17 07:18:01;;;;;;;8.37;5.43;;;;;;;;;;5104982;28;20427;-68
2023/08/17 07:20:28;;;;;;;10.20;6.33;;;;;;;;;;5100768;28;20463;-68
2023/08/17 07:22:55;;;;;;;14.87;11.73;;;;;;;;;;5103158;28;20483;-68
2023/08/17 07:25:23;;;;;;;8.10;4.97;;;;;;;;;;5097773;28;20487;-68
2023/08/17 07:27:51;;;;;;;9.33;6.00;;;;;;;;;;5100868;28;20425;-68
2023/08/17 07:30:18;;;;;;;8.83;5.60;;;;;;;;;;5105060;28;20835;-68
2023/08/17 07:32:45;;;;;;;8.90;5.83;;;;;;;;;;5103632;28;20463;-68
2023/08/17 07:35:12;;;;;;;12.30;6.03;;;;;;;;;;5103372;28;20819;-68
2023/08/17 07:37:39;;;;;;;10.07;5.97;;;;;;;;;;5100519;28;20432;-68
2023/08/17 07:40:07;;;;;;;9.47;6.53;;;;;;;;;;5106214;28;20462;-68
2023/08/17 07:42:35;;;;;;;7.10;5.43;;;;;;;;;;5096983;28;20536;-68
2023/08/17 07:45:05;;;;;;;9.03;5.77;;;;;;;;;;5104822;28;20450;-69
2023/08/17 07:47:32;;;;;;;8.47;5.40;;;;;;;;;;5099842;28;20524;-67
2023/08/17 07:49:59;;;;;;;7.07;4.47;;;;;;;;;;5106423;28;20827;-68
2023/08/17 07:52:26;;;;;;;8.00;5.97;;;;;;;;;;5101209;28;20472;-69
2023/08/17 07:54:53;;;;;;;7.60;5.90;;;;;;;;;;5099924;28;20505;-68
2023/08/17 07:57:20;;;;;;;7.40;5.03;;;;;;;;;;5103539;28;20428;-68
2023/08/17 07:59:49;;;;;;;10.97;6.50;;;;;;;;;;5102084;28;20964;-68
2023/08/17 08:02:16;;;;;;;7.27;5.47;;;;;;;;;;5101697;28;20480;-68
2023/08/17 08:04:43;;;;;;;9.17;5.40;;;;;;;;;;5106564;28;20447;-68
2023/08/17 08:09:39;;;;;;;8.40;5.50;;;;;;;;;;5042202;28;20858;-68
2023/08/17 08:12:07;;;;;;;6.03;4.43;;;;;;;;;;5047313;28;20478;-67
2023/08/17 08:14:34;;;;;;;8.43;5.03;;;;;;;;;;5049918;28;20442;-67
2023/08/17 08:17:03;;;;;;;7.67;4.83;;;;;;;;;;5048665;28;20458;-67
2023/08/17 08:19:30;;;;;;;6.37;4.13;;;;;;;;;;5045811;28;20453;-68
2023/08/17 08:21:57;;;;;;;6.70;4.77;;;;;;;;;;5050462;28;20462;-68
2023/08/17 08:24:24;;;;;;;6.13;4.50;;;;;;;;;;5045875;28;20451;-67
2023/08/17 08:26:52;;;;;;;7.33;4.90;;;;;;;;;;5047210;28;20508;-68
2023/08/17 08:29:20;;;;;;;6.97;4.93;;;;;;;;;;5041811;28;20446;-68
2023/08/17 08:31:47;;;;;;;8.17;4.47;;;;;;;;;;5042029;28;20478;-67
2023/08/17 08:34:15;;;;;;;7.10;5.07;;;;;;;;;;5049842;28;20438;-67
2023/08/17 08:36:42;;;;;;;9.70;5.17;;;;;;;;;;5045419;28;20438;-67
2023/08/17 08:39:10;;;;;;;6.20;4.60;;;;;;;;;;5049673;28;20939;-68
2023/08/17 08:41:38;;;;;;;7.37;4.83;;;;;;;;;;5049494;28;20485;-68
2023/08/17 08:44:05;;;;;;;7.47;4.53;;;;;;;;;;5050590;28;20808;-67
2023/08/17 08:46:35;;;;;;;6.90;4.07;;;;;;;;;;5052728;28;20478;-68
2023/08/17 08:49:02;;;;;;;6.23;4.13;;;;;;;;;;5048618;28;20442;-68
2023/08/17 08:51:33;;;;;;;6.47;4.00;;;;;;;;;;5052849;28;20454;-67
2023/08/17 08:54:03;;;;;;;6.83;3.80;;;;;;;;;;5046665;28;20451;-68
2023/08/17 08:56:33;;;;;;;5.87;4.13;;;;;;;;;;5042147;28;20859;-68
2023/08/17 08:59:02;;;;;;;6.60;4.40;;;;;;;;;;5044869;28;20869;-67
2023/08/17 09:01:30;;;;;;;8.10;4.27;;;;;;;;;;5045551;28;20889;-68
2023/08/17 09:03:57;;;;;;;6.83;4.40;;;;;;;;;;5047978;28;20855;-68
2023/08/17 09:06:25;;;;;;;6.17;4.77;;;;;;;;;;5051004;28;20745;-67
2023/08/17 09:08:53;;;;;;;7.33;4.37;;;;;;;;;;5066883;28;20476;-68
2023/08/17 09:11:20;;;;;;;6.10;4.00;;;;;;;;;;5072135;28;20978;-68
2023/08/17 09:13:48;;;;;;;4.80;4.13;;;;;;;;;;5076113;28;20856;-67
2023/08/17 09:16:15;;;;;;;6.60;4.57;;;;;;;;;;5076160;28;20425;-68
2023/08/17 09:18:42;;;;;;;4.57;3.50;;;;;;;;;;5072060;28;20441;-67
2023/08/17 09:21:09;;;;;;;5.93;4.00;;;;;;;;;;5072939;28;20433;-67
2023/08/17 09:23:37;;;;;;;5.60;3.70;;;;;;;;;;5072235;28;20433;-68
2023/08/17 09:26:10;;;;;;;5.23;3.87;;;;;;;;;;5072139;28;20849;-68
2023/08/17 09:28:40;;;;;;;5.83;4.07;;;;;;;;;;5069239;28;20433;-68
2023/08/17 09:31:07;;;;;;;6.20;3.40;;;;;;;;;;5072707;28;20931;-67
2023/08/17 09:33:35;;;;;;;5.83;4.00;;;;;;;;;;5072285;28;20461;-68
2023/08/17 09:36:02;;;;;;;9.90;4.00;;;;;;;;;;5075659;28;20441;-68
2023/08/17 09:38:29;;;;;;;5.80;3.53;;;;;;;;;;5072773;28;20858;-67
2023/08/17 09:40:56;;;;;;;5.40;3.73;;;;;;;;;;5073101;28;20441;-67
2023/08/17 09:43:27;;;;;;;4.40;3.43;;;;;;;;;;5071254;28;20475;-68
2023/08/17 09:45:55;;;;;;;4.73;3.17;;;;;;;;;;5072543;28;20456;-67
2023/08/17 09:48:23;;;;;;;12.13;4.00;;;;;;;;;;5076692;28;20860;-68
2023/08/17 09:50:50;;;;;;;5.40;4.00;;;;;;;;;;5075453;28;20787;-68
2023/08/17 09:53:18;;;;;;;6.17;4.37;;;;;;;;;;5073722;28;20494;-68
2023/08/17 09:55:45;;;;;;;6.10;3.50;;;;;;;;;;5071964;28;20480;-68
2023/08/17 09:58:14;;;;;;;5.20;4.00;;;;;;;;;;5080184;28;20447;-68
2023/08/17 10:00:45;;;;;;;4.43;3.80;;;;;;;;;;5072256;28;20516;-67
2023/08/17 10:03:12;;;;;;;4.40;3.70;;;;;;;;;;5070301;28;20473;-67
2023/08/17 10:05:41;;;;;;;5.73;3.97;;;;;;;;;;5074214;28;20792;-67
2023/08/17 10:08:08;;;;;;;5.53;4.50;;;;;;;;;;5073030;28;20895;-68
2023/08/17 10:10:36;;;;;;;6.30;4.80;;;;;;;;;;5072775;28;20437;-68
2023/08/17 10:13:09;;;;;;;7.67;4.40;;;;;;;;;;5074690;28;20475;-68
2023/08/17 10:15:39;;;;;;;5.43;3.67;;;;;;;;;;5075460;28;20464;-68
2023/08/17 10:18:12;;;;;;;6.90;4.50;;;;;;;;;;5069679;28;20453;-68
2023/08/17 10:20:43;;;;;;;5.40;4.43;;;;;;;;;;5073314;28;20978;-68
2023/08/17 10:23:13;;;;;;;6.93;4.80;;;;;;;;;;5072370;28;20453;-68
2023/08/17 10:25:41;;;;;;;8.60;4.33;;;;;;;;;;5073020;28;20453;-68
2023/08/17 10:28:09;;;;;;;6.13;5.30;;;;;;;;;;5071874;28;20484;-69
2023/08/17 10:30:36;;;;;;;7.07;5.77;;;;;;;;;;5072223;28;20440;-68
2023/08/17 10:33:04;;;;;;;6.50;4.87;;;;;;;;;;5071006;28;20473;-68
2023/08/17 10:35:33;;;;;;;7.10;4.73;;;;;;;;;;5071252;28;20931;-69
2023/08/17 10:38:00;;;;;;;6.30;5.13;;;;;;;;;;5071360;28;20444;-68
2023/08/17 10:40:28;;;;;;;10.43;5.30;;;;;;;;;;5074434;28;20463;-68
2023/08/17 10:42:55;;;;;;;5.53;4.30;;;;;;;;;;5073683;28;20493;-68
2023/08/17 10:45:27;;;;;;;6.10;4.40;;;;;;;;;;5070691;28;20461;-69
2023/08/17 10:48:01;;;;;;;5.90;5.07;;;;;;;;;;5071050;28;20476;-68
2023/08/17 10:50:28;;;;;;;7.20;5.47;;;;;;;;;;5067033;28;20447;-69
2023/08/17 10:52:57;;;;;;;6.40;4.77;;;;;;;;;;5070608;28;20896;-68
2023/08/17 10:55:36;;;;;;;5.90;5.03;;;;;;;;;;5076054;28;20198;-68
2023/08/17 10:58:04;;;;;;;6.63;4.50;;;;;;;;;;5073108;28;20191;-68
2023/08/17 11:00:37;;;;;;;7.60;4.80;;;;;;;;;;5073940;28;20191;-68
2023/08/17 11:03:06;;;;;;;5.63;4.67;;;;;;;;;;5070173;28;20215;-68
2023/08/17 11:05:38;;;;;;;5.90;4.23;;;;;;;;;;5070305;28;20285;-69
2023/08/17 11:08:07;;;;;;;5.67;4.40;;;;;;;;;;5074667;28;20218;-68
2023/08/17 11:10:34;;;;;;;5.70;4.80;;;;;;;;;;5073574;28;20209;-69
2023/08/17 11:13:02;;;;;;;6.27;4.07;;;;;;;;;;5072080;28;20333;-67
2023/08/17 11:15:38;;;;;;;5.00;4.50;;;;;;;;;;5074317;28;20282;-69
2023/08/17 11:18:05;;;;;;;5.73;4.73;;;;;;;;;;5070489;28;20631;-69
2023/08/17 11:20:32;;;;;;;7.10;4.87;;;;;;;;;;5067413;28;20233;-69
2023/08/17 11:22:59;;;;;;;5.10;4.10;;;;;;;;;;5071167;28;20249;-68
2023/08/17 11:25:28;;;;;;;6.43;5.00;;;;;;;;;;5071640;28;20688;-68
2023/08/17 11:27:55;;;;;;;6.07;5.07;;;;;;;;;;5071283;28;20218;-69
2023/08/17 11:30:23;;;;;;;6.57;5.17;;;;;;;;;;5070028;28;20198;-68
2023/08/17 11:32:51;;;;;;;6.60;4.80;;;;;;;;;;5075390;28;20759;-69
2023/08/17 11:35:18;;;;;;;5.70;5.10;;;;;;;;;;5071855;28;20202;-68
2023/08/17 11:37:46;;;;;;;6.40;5.43;;;;;;;;;;5069362;28;20202;-66
2023/08/17 11:40:13;;;;;;;6.07;5.20;;;;;;;;;;5071233;28;20202;-68
2023/08/17 11:42:41;;;;;;;4.15;3.72;;;;;;;;;;5070848;28;20214;-69
2023/08/17 11:45:10;;;;;;;6.22;4.57;;;;;;;;;;5070385;28;20202;-69
2023/08/17 11:47:37;;;;;;;5.20;4.45;;;;;;;;;;5074134;28;20221;-69
2023/08/17 11:50:05;;;;;;;6.07;4.00;;;;;;;;;;5069430;28;20620;-69
2023/08/17 11:52:32;;;;;;;4.75;4.30;;;;;;;;;;5070714;28;20252;-69
2023/08/17 11:54:59;;;;;;;5.25;4.45;;;;;;;;;;5070435;28;20256;-68
2023/08/17 11:57:27;;;;;;;5.97;4.28;;;;;;;;;;5070237;28;20218;-69
2023/08/17 11:59:56;;;;;;;4.45;3.65;;;;;;;;;;5073279;28;20203;-69
2023/08/17 12:02:24;;;;;;;6.38;4.68;;;;;;;;;;5075303;28;20222;-69
2023/08/17 12:04:51;;;;;;;5.35;3.63;;;;;;;;;;5073825;28;20243;-67
2023/08/17 12:07:19;;;;;;;4.97;4.40;;;;;;;;;;5071875;28;20558;-69
2023/08/17 12:09:47;;;;;;;6.47;4.80;;;;;;;;;;5066781;28;20230;-68
2023/08/17 12:12:14;;;;;;;5.80;4.18;;;;;;;;;;5074898;28;20225;-67
2023/08/17 12:14:43;;;;;;;7.75;4.70;;;;;;;;;;5067360;28;20202;-69
2023/08/17 12:17:17;;;;;;;5.18;4.35;;;;;;;;;;5070086;28;20245;-68
2023/08/17 12:19:44;;;;;;;6.75;4.65;;;;;;;;;;5074617;28;20730;-68
2023/08/17 12:22:11;;;;;;;8.05;4.22;;;;;;;;;;5074787;28;20227;-68
2023/08/17 12:24:39;;;;;;;6.03;4.88;;;;;;;;;;5075769;28;20194;-68
2023/08/17 12:27:06;;;;;;;4.85;4.20;;;;;;;;;;5073191;28;20300;-67
2023/08/17 12:29:34;;;;;;;5.13;4.63;;;;;;;;;;5079299;28;20198;-68
2023/08/17 12:32:02;;;;;;;6.70;5.22;;;;;;;;;;5075502;28;20584;-69
2023/08/17 12:34:30;;;;;;;6.18;5.40;;;;;;;;;;5077084;28;20661;-68
2023/08/17 12:36:58;;;;;;;5.07;4.50;;;;;;;;;;5074330;28;20186;-68
2023/08/17 12:39:25;;;;;;;6.50;4.90;;;;;;;;;;5074224;28;20598;-68
2023/08/17 12:41:52;;;;;;;6.97;5.70;;;;;;;;;;5073980;28;20263;-68
2023/08/17 12:44:19;;;;;;;6.53;4.93;;;;;;;;;;5072843;28;20198;-68
2023/08/17 12:46:46;;;;;;;6.73;5.57;;;;;;;;;;5073784;28;20213;-68
2023/08/17 12:49:13;;;;;;;5.70;5.10;;;;;;;;;;5073040;28;20199;-68
2023/08/17 12:51:42;;;;;;;5.30;4.77;;;;;;;;;;5074571;28;20214;-68
2023/08/17 12:54:09;;;;;;;6.00;4.70;;;;;;;;;;5075711;28;20510;-68
2023/08/17 12:56:36;;;;;;;6.77;4.77;;;;;;;;;;5073115;28;20963;-68
2023/08/17 12:59:03;;;;;;;5.33;4.43;;;;;;;;;;5074253;28;20425;-67
2023/08/17 13:01:30;;;;;;;5.87;4.10;;;;;;;;;;5076205;28;20476;-68
2023/08/17 13:03:57;;;;;;;5.33;4.17;;;;;;;;;;5078873;28;20447;-67
2023/08/17 13:06:24;;;;;;;6.07;4.80;;;;;;;;;;5072015;28;20824;-68
2023/08/17 13:08:53;;;;;;;6.17;4.97;;;;;;;;;;5071753;28;20522;-68
2023/08/17 13:11:20;;;;;;;6.87;4.30;;;;;;;;;;5075815;28;20934;-68
2023/08/17 13:13:47;;;;;;;5.57;4.57;;;;;;;;;;5073679;28;20902;-68
2023/08/17 13:16:14;;;;;;;6.73;4.10;;;;;;;;;;5076545;28;20463;-68
2023/08/17 13:18:41;;;;;;;5.40;4.10;;;;;;;;;;5072444;28;20437;-68
2023/08/17 13:21:08;;;;;;;5.43;4.37;;;;;;;;;;5071720;28;20491;-67
2023/08/17 13:23:35;;;;;;;5.67;4.30;;;;;;;;;;5073781;28;20479;-67
2023/08/17 13:26:03;;;;;;;5.27;3.57;;;;;;;;;;5073447;28;20433;-68
2023/08/17 13:28:30;;;;;;;6.73;3.97;;;;;;;;;;5072141;28;20978;-66
2023/08/17 13:30:57;;;;;;;5.13;3.73;;;;;;;;;;5072932;28;20441;-67
2023/08/17 13:33:24;;;;;;;4.53;3.40;;;;;;;;;;5075513;28;20656;-67
2023/08/17 13:35:52;;;;;;;5.80;4.30;;;;;;;;;;5075190;28;20456;-68
2023/08/17 13:38:20;;;;;;;5.00;3.60;;;;;;;;;;5072522;28;20433;-66
2023/08/17 13:40:47;;;;;;;4.80;3.20;;;;;;;;;;5076328;28;20451;-66
2023/08/17 13:43:15;;;;;;;5.70;4.90;;;;;;;;;;5075749;28;20454;-65
2023/08/17 13:45:42;;;;;;;5.23;4.00;;;;;;;;;;5075807;28;20475;-65
2023/08/17 13:48:10;;;;;;;5.23;3.70;;;;;;;;;;5074634;28;20524;-66
2023/08/17 13:50:39;;;;;;;8.00;5.40;;;;;;;;;;5072848;28;20481;-66
2023/08/17 13:53:06;;;;;;;5.47;3.97;;;;;;;;;;5060433;28;20481;-67
2023/08/17 13:55:33;;;;;;;6.70;3.70;;;;;;;;;;5072293;28;20434;-67
2023/08/17 13:58:00;;;;;;;4.77;3.97;;;;;;;;;;5072073;28;20449;-66
2023/08/17 14:00:29;;;;;;;5.47;3.50;;;;;;;;;;5072414;28;20487;-67
2023/08/17 14:02:56;;;;;;;4.90;4.20;;;;;;;;;;5067849;28;20460;-67
2023/08/17 14:05:23;;;;;;;6.60;4.53;;;;;;;;;;5072219;28;20453;-68
2023/08/17 14:07:50;;;;;;;5.30;4.07;;;;;;;;;;5073297;28;20503;-67
2023/08/17 14:10:17;;;;;;;5.43;3.83;;;;;;;;;;5076865;28;20430;-68
2023/08/17 14:12:44;;;;;;;4.90;3.83;;;;;;;;;;5073432;28;20464;-67
2023/08/17 14:15:11;;;;;;;6.00;4.17;;;;;;;;;;5068433;28;20472;-67
2023/08/17 14:17:40;;;;;;;10.67;4.77;;;;;;;;;;5072178;28;20487;-67
2023/08/17 14:20:08;;;;;;;5.70;3.80;;;;;;;;;;5074312;28;20457;-68
2023/08/17 14:22:35;;;;;;;4.90;4.27;;;;;;;;;;5076341;28;20544;-67
2023/08/17 14:25:03;;;;;;;5.60;3.77;;;;;;;;;;5072153;28;20943;-68
2023/08/17 14:27:30;;;;;;;7.70;4.90;;;;;;;;;;5073086;28;20560;-68
2023/08/17 14:30:01;;;;;;;5.77;4.60;;;;;;;;;;5075179;28;20954;-66
2023/08/17 14:32:28;;;;;;;5.83;4.60;;;;;;;;;;5078700;28;20456;-66
2023/08/17 14:34:57;;;;;;;7.20;4.00;;;;;;;;;;5071488;28;20489;-67
2023/08/17 14:37:24;;;;;;;5.60;4.10;;;;;;;;;;5072593;28;20993;-66
2023/08/17 14:39:51;;;;;;;5.50;4.60;;;;;;;;;;5071560;28;20463;-68
2023/08/17 14:42:18;;;;;;;6.10;4.30;;;;;;;;;;5071974;28;20460;-67
2023/08/17 14:44:45;;;;;;;6.13;4.43;;;;;;;;;;5074438;28;20460;-67
2023/08/17 14:47:12;;;;;;;5.80;4.30;;;;;;;;;;5073963;28;20848;-67